SUAA    
 062200Z 22015KT 9999 SCT020 15/06 Q1019    
 SUCA    
 062000Z 23015G25KT 9999 FEW020 18/04 Q1019    
 SUDU    
 061900Z 19018KT 9999 FEW023 19/05 Q1018    
 SULS    
 070100Z 22024KT 9999 SCT020 16/07 Q1018    
 SUMU    
 070100Z 22012G25KT 9999 SCT023 15/04 Q1020 TEMPO 22015G25  
 SUSO    
 062200Z 22014KT CAVOK 19/09 Q1018     
 SABE    
 070100Z 19006KT CAVOK 15/03 Q1023 NOSIG    
 SACO    
 070100Z VRB02KT CAVOK 13/04 Q1026 NOSIG    
 SADF    
 070100Z 20003KT CAVOK 13/02 Q1023     
 SAEZ    
 070100Z 23003KT CAVOK 11/04 Q1023 NOSIG    
 SAZB    
 011410Z 23008KT 9000 OVC005 16/16 Q1016    
 SAZM    
 020100Z 27003KT CAVOK 02/00 Q1017     
 SBPA    
 070100Z 27006KT CAVOK 20/19 Q1015     
 SGAS    
 070100Z 19011KT CAVOK 24/19 Q1016     
 SGES    
 070100Z 18007KT 7000 OVC010 21/21 Q1015    
 SCCI    
 070100Z 30015KT CAVOK 11/06 Q1007 NOSIG    
 SCRM    
 070100Z 32028G38KT 2000 -RA OVC002 03/03 Q0978 NOSIG